Time;durP1;ratioP1;P1;durP2;ratioP2;P2;SDS_P1;SDS_P2;PMS_P1;PMS_P2;Temp;Humidity;BMP_temperature;BMP_pressure;BME280_temperature;BME280_humidity;BME280_pressure;Samples;Min_cycle;Max_cycle;Signal;HPM_P1;HPM_P2
2022/08/17 00:00:11;;;;;;;0.00;0.00;;;21.80;99.90;;;;;;4996230;28;20537;-70
2022/08/17 00:03:04;;;;;;;0.00;0.00;;;21.70;99.90;;;;;;4998405;28;20458;-70
2022/08/17 00:05:36;;;;;;;0.00;0.00;;;21.70;99.90;;;;;;5005889;28;20445;-72
2022/08/17 00:08:05;;;;;;;0.00;0.00;;;21.60;99.90;;;;;;4996937;28;20480;-70
2022/08/17 00:10:33;;;;;;;0.00;0.00;;;21.60;99.90;;;;;;4998021;28;20454;-70
2022/08/17 00:13:06;;;;;;;0.00;0.00;;;21.60;99.90;;;;;;4988484;28;20449;-69
2022/08/17 00:15:34;;;;;;;0.00;0.00;;;21.60;99.90;;;;;;4978471;28;20467;-69
2022/08/17 00:18:04;;;;;;;0.00;0.00;;;21.50;99.90;;;;;;4988498;28;20513;-71
2022/08/17 00:20:53;;;;;;;0.00;0.00;;;21.50;99.90;;;;;;4996770;28;20466;-70
2022/08/17 00:23:21;;;;;;;0.00;0.00;;;21.40;99.90;;;;;;4998572;28;20445;-71
2022/08/17 00:25:51;;;;;;;0.00;0.00;;;21.50;99.90;;;;;;4998412;28;20486;-70
2022/08/17 00:28:20;;;;;;;0.00;0.00;;;21.40;99.90;;;;;;4997102;28;20471;-70
2022/08/17 00:30:49;;;;;;;0.00;0.00;;;21.40;99.90;;;;;;4999963;28;20559;-71
2022/08/17 00:33:22;;;;;;;0.00;0.00;;;21.40;99.90;;;;;;4998839;28;20454;-70
2022/08/17 00:35:51;;;;;;;0.00;0.00;;;21.40;99.90;;;;;;4998938;28;20445;-71
2022/08/17 00:38:20;;;;;;;0.00;0.00;;;21.40;99.90;;;;;;4998000;28;20470;-70
2022/08/17 00:40:50;;;;;;;0.00;0.00;;;21.40;99.90;;;;;;4997968;28;20486;-72
2022/08/17 00:43:28;;;;;;;0.00;0.00;;;21.30;99.90;;;;;;4997720;28;20450;-72
2022/08/17 00:45:57;;;;;;;0.00;0.00;;;21.30;99.90;;;;;;4998061;28;20435;-73
2022/08/17 00:48:26;;;;;;;0.00;0.00;;;21.20;99.90;;;;;;4998114;28;20563;-71
2022/08/17 00:51:02;;;;;;;0.00;0.00;;;21.20;99.90;;;;;;4997721;28;20541;-71
2022/08/17 00:53:32;;;;;;;0.00;0.00;;;21.20;99.90;;;;;;4997388;28;20885;-71
2022/08/17 00:56:04;;;;;;;0.00;0.00;;;21.20;99.90;;;;;;4997854;28;20831;-71
2022/08/17 00:58:32;;;;;;;0.00;0.00;;;21.10;99.90;;;;;;4997030;28;20835;-71
2022/08/17 01:01:04;;;;;;;0.00;0.00;;;21.10;99.90;;;;;;4997821;28;20865;-73
2022/08/17 01:03:35;;;;;;;0.00;0.00;;;21.10;99.90;;;;;;4997691;28;20495;-71
2022/08/17 01:06:05;;;;;;;0.00;0.00;;;21.10;99.90;;;;;;4997685;28;20446;-72
2022/08/17 01:08:34;;;;;;;0.00;0.00;;;21.00;99.90;;;;;;4998802;28;20549;-72
2022/08/17 01:11:04;;;;;;;0.00;0.00;;;21.00;99.90;;;;;;4996131;28;20456;-71
2022/08/17 01:13:35;;;;;;;0.00;0.00;;;21.00;99.90;;;;;;4995874;28;20446;-71
2022/08/17 01:16:15;;;;;;;0.00;0.00;;;20.90;99.90;;;;;;4996113;28;20924;-73
2022/08/17 01:18:47;;;;;;;0.00;0.00;;;20.90;99.90;;;;;;4996467;28;20666;-71
2022/08/17 01:21:22;;;;;;;0.00;0.00;;;20.90;99.90;;;;;;4996552;28;21064;-71
2022/08/17 01:23:51;;;;;;;0.00;0.00;;;20.90;99.90;;;;;;4969663;28;20518;-72
2022/08/17 01:26:19;;;;;;;0.00;0.00;;;20.90;99.90;;;;;;4971444;28;20447;-72
2022/08/17 01:28:47;;;;;;;0.00;0.00;;;20.80;99.90;;;;;;4977765;28;20475;-71
2022/08/17 01:31:24;;;;;;;0.00;0.00;;;20.80;99.90;;;;;;4976384;28;20957;-72
2022/08/17 01:33:52;;;;;;;0.00;0.00;;;20.70;99.90;;;;;;4958994;28;20448;-72
2022/08/17 01:36:20;;;;;;;0.00;0.00;;;20.70;99.90;;;;;;4977646;28;20440;-71
2022/08/17 01:38:48;;;;;;;0.00;0.00;;;20.70;99.90;;;;;;4977639;28;20564;-71
2022/08/17 01:41:19;;;;;;;0.00;0.00;;;20.70;99.90;;;;;;4974267;28;20454;-70
2022/08/17 01:43:50;;;;;;;0.00;0.00;;;20.70;99.90;;;;;;4974772;28;20450;-71
2022/08/17 01:46:23;;;;;;;0.00;0.00;;;20.60;99.90;;;;;;4978046;28;20987;-70
2022/08/17 01:48:51;;;;;;;0.00;0.00;;;20.60;99.90;;;;;;4976733;28;20462;-69
2022/08/17 01:51:20;;;;;;;0.00;0.00;;;20.60;99.90;;;;;;4976243;28;20834;-70
2022/08/17 01:53:52;;;;;;;0.00;0.00;;;20.60;99.90;;;;;;4976550;28;20452;-69
2022/08/17 01:56:23;;;;;;;0.00;0.00;;;20.60;99.90;;;;;;4976784;28;20717;-68
2022/08/17 01:58:52;;;;;;;0.00;0.00;;;20.60;99.90;;;;;;4973983;28;20494;-69
2022/08/17 02:01:23;;;;;;;0.00;0.00;;;20.50;99.90;;;;;;4967518;28;20978;-71
2022/08/17 02:03:51;;;;;;;0.00;0.00;;;20.50;99.90;;;;;;4975630;28;20443;-70
2022/08/17 02:06:29;;;;;;;0.00;0.00;;;20.50;99.90;;;;;;4976274;28;20539;-69
2022/08/17 02:08:58;;;;;;;0.00;0.00;;;20.50;99.90;;;;;;4976134;28;20974;-69
2022/08/17 02:11:36;;;;;;;0.00;0.00;;;20.40;99.90;;;;;;4975900;28;20827;-70
2022/08/17 02:14:05;;;;;;;0.00;0.00;;;20.40;99.90;;;;;;4976010;28;20449;-70
2022/08/17 02:21:56;;;;;;;0.00;0.00;;;20.40;99.90;;;;;;5020574;28;20487;-73
2022/08/17 02:24:28;;;;;;;0.00;0.00;;;20.40;99.90;;;;;;5018077;28;20428;-73
2022/08/17 02:27:17;;;;;;;0.00;0.00;;;20.40;99.90;;;;;;5018133;28;20441;-73
2022/08/17 02:29:45;;;;;;;0.00;0.00;;;20.30;99.90;;;;;;5037207;28;20543;-74
2022/08/17 02:32:17;;;;;;;0.00;0.00;;;20.30;99.90;;;;;;5031146;28;20453;-72
2022/08/17 02:34:52;;;;;;;0.00;0.00;;;20.30;99.90;;;;;;5020916;28;20979;-73
2022/08/17 02:37:20;;;;;;;0.00;0.00;;;20.30;99.90;;;;;;5021112;28;20952;-74
2022/08/17 02:39:48;;;;;;;0.00;0.00;;;20.30;99.90;;;;;;5020815;28;20465;-73
2022/08/17 02:42:17;;;;;;;0.00;0.00;;;20.30;99.90;;;;;;5020238;28;20480;-73
2022/08/17 02:44:45;;;;;;;0.00;0.00;;;20.30;99.90;;;;;;5018929;28;21167;-73
2022/08/17 02:47:13;;;;;;;0.00;0.00;;;20.20;99.90;;;;;;5018268;28;20967;-71
2022/08/17 02:49:41;;;;;;;0.00;0.00;;;20.20;99.90;;;;;;5017243;28;21210;-73
2022/08/17 02:52:21;;;;;;;0.00;0.00;;;20.20;99.90;;;;;;5017693;28;20456;-71
2022/08/17 02:55:12;;;;;;;0.00;0.00;;;20.20;99.90;;;;;;5022152;28;20948;-74
2022/08/17 02:57:41;;;;;;;0.00;0.00;;;20.20;99.90;;;;;;5020820;28;20974;-75
2022/08/17 03:00:16;;;;;;;0.00;0.00;;;20.20;99.90;;;;;;5021689;28;20472;-75
2022/08/17 03:02:45;;;;;;;0.00;0.00;;;20.20;99.90;;;;;;5022034;28;20476;-77
2022/08/17 03:05:15;;;;;;;0.00;0.00;;;20.10;99.90;;;;;;5022445;28;20946;-73
2022/08/17 03:07:43;;;;;;;0.00;0.00;;;20.10;99.90;;;;;;5021961;28;20528;-73
2022/08/17 03:10:12;;;;;;;0.00;0.00;;;20.10;99.90;;;;;;5020697;28;20465;-74
2022/08/17 03:12:42;;;;;;;0.00;0.00;;;20.10;99.90;;;;;;5020872;28;20443;-73
2022/08/17 03:15:13;;;;;;;0.00;0.00;;;20.10;99.90;;;;;;5021959;28;20447;-73
2022/08/17 03:17:41;;;;;;;0.00;0.00;;;20.10;99.90;;;;;;5021848;28;20433;-73
2022/08/17 03:20:10;;;;;;;0.00;0.00;;;20.10;99.90;;;;;;5020723;28;20473;-73
2022/08/17 03:22:40;;;;;;;0.00;0.00;;;20.20;99.90;;;;;;5021313;28;21015;-74
2022/08/17 03:25:16;;;;;;;0.00;0.00;;;20.20;99.90;;;;;;5021076;28;20653;-74
2022/08/17 03:27:51;;;;;;;0.00;0.00;;;20.20;99.90;;;;;;5021458;28;20492;-75
2022/08/17 03:30:21;;;;;;;0.00;0.00;;;20.20;99.90;;;;;;5021486;28;20528;-74
2022/08/17 03:32:51;;;;;;;0.00;0.00;;;20.10;99.90;;;;;;5022144;28;20445;-74
2022/08/17 03:35:22;;;;;;;0.00;0.00;;;20.00;99.90;;;;;;5021636;28;20445;-74
2022/08/17 03:37:50;;;;;;;0.00;0.00;;;20.10;99.90;;;;;;5021223;28;20465;-75
2022/08/17 03:40:28;;;;;;;0.00;0.00;;;20.00;99.90;;;;;;5021437;28;20433;-73
2022/08/17 03:43:18;;;;;;;0.00;0.00;;;20.00;99.90;;;;;;5021770;28;20467;-72
2022/08/17 03:57:01;;;;;;;0.00;0.00;;;20.00;99.90;;;;;;5021444;28;20459;-74
2022/08/17 03:59:31;;;;;;;0.00;0.00;;;20.00;99.90;;;;;;5020349;28;20556;-74
2022/08/17 04:02:03;;;;;;;0.00;0.00;;;19.90;99.90;;;;;;5020839;28;20449;-73
2022/08/17 04:04:31;;;;;;;0.00;0.00;;;19.90;99.90;;;;;;5027721;28;21148;-74
2022/08/17 04:06:59;;;;;;;0.00;0.00;;;19.90;99.90;;;;;;5025509;28;20457;-75
2022/08/17 04:09:27;;;;;;;0.00;0.00;;;19.90;99.90;;;;;;5020694;28;20461;-74
2022/08/17 04:11:56;;;;;;;0.00;0.00;;;19.90;99.90;;;;;;5020215;28;20968;-74
2022/08/17 04:14:29;;;;;;;0.00;0.00;;;19.90;99.90;;;;;;5020919;28;20445;-74
2022/08/17 04:16:59;;;;;;;0.00;0.00;;;19.90;99.90;;;;;;5020186;28;20441;-73
2022/08/17 04:19:27;;;;;;;0.00;0.00;;;19.90;99.90;;;;;;5020144;28;20567;-75
2022/08/17 04:21:54;;;;;;;0.00;0.00;;;19.90;99.90;;;;;;5031307;28;20436;-75
2022/08/17 04:24:24;;;;;;;0.00;0.00;;;19.90;99.90;;;;;;5039801;28;20865;-74
2022/08/17 04:26:53;;;;;;;0.00;0.00;;;19.90;99.90;;;;;;5040043;28;20455;-76
2022/08/17 04:29:21;;;;;;;0.00;0.00;;;19.90;99.90;;;;;;5039857;28;20642;-74
2022/08/17 04:31:49;;;;;;;0.00;0.00;;;19.90;99.90;;;;;;5039708;28;20442;-74
2022/08/17 04:34:19;;;;;;;0.00;0.00;;;19.90;99.90;;;;;;5039985;28;20664;-73
2022/08/17 04:36:46;;;;;;;0.00;0.00;;;20.00;99.90;;;;;;5040152;28;20436;-73
2022/08/17 04:39:17;;;;;;;0.00;0.00;;;20.00;99.90;;;;;;5039959;28;20464;-73
2022/08/17 04:44:30;;;;;;;0.00;0.00;;;20.00;99.90;;;;;;5039469;28;20476;-73
2022/08/17 04:47:06;;;;;;;0.00;0.00;;;20.10;99.90;;;;;;5040029;28;20509;-74
2022/08/17 04:49:38;;;;;;;0.00;0.00;;;20.10;99.90;;;;;;5039744;28;20464;-75
2022/08/17 04:52:07;;;;;;;0.00;0.00;;;20.10;99.90;;;;;;5040807;28;20440;-74
2022/08/17 04:54:54;;;;;;;0.00;0.00;;;20.20;99.90;;;;;;5039949;28;20933;-75
2022/08/17 04:57:22;;;;;;;0.00;0.00;;;20.20;99.90;;;;;;5038845;28;21108;-72
2022/08/17 04:59:50;;;;;;;0.00;0.00;;;20.20;99.90;;;;;;5040086;28;20460;-72
2022/08/17 05:02:18;;;;;;;0.00;0.00;;;20.20;99.90;;;;;;5041172;28;20486;-73
2022/08/17 05:04:47;;;;;;;0.00;0.00;;;20.20;99.90;;;;;;5039690;28;20933;-73
2022/08/17 05:07:15;;;;;;;0.00;0.00;;;20.30;99.90;;;;;;5039308;28;20442;-73
2022/08/17 05:09:49;;;;;;;0.00;0.00;;;20.30;99.90;;;;;;5039290;28;20462;-76
2022/08/17 05:12:17;;;;;;;0.00;0.00;;;20.40;99.90;;;;;;5039401;28;20440;-76
2022/08/17 05:14:45;;;;;;;0.00;0.00;;;20.40;99.90;;;;;;5039586;28;20452;-75
2022/08/17 05:17:13;;;;;;;0.00;0.00;;;20.50;99.90;;;;;;5041100;28;20479;-81
2022/08/17 05:19:41;;;;;;;0.00;0.00;;;20.50;99.90;;;;;;5039302;28;20540;-70
2022/08/17 05:22:10;;;;;;;0.00;0.00;;;20.60;99.90;;;;;;5038589;28;20471;-69
2022/08/17 05:24:38;;;;;;;0.00;0.00;;;20.60;99.90;;;;;;5039309;28;21181;-69
2022/08/17 05:27:21;;;;;;;0.00;0.00;;;20.60;99.90;;;;;;5012390;28;20592;-70
2022/08/17 05:29:50;;;;;;;0.00;0.00;;;20.70;99.90;;;;;;5012284;28;20467;-70
2022/08/17 05:32:21;;;;;;;0.00;0.00;;;20.70;99.90;;;;;;5014480;28;20449;-70
2022/08/17 05:35:07;;;;;;;0.00;0.00;;;20.80;99.90;;;;;;5019584;28;20479;-70
2022/08/17 05:37:37;;;;;;;0.00;0.00;;;20.80;99.90;;;;;;5009139;28;20970;-70
2022/08/17 05:40:07;;;;;;;0.00;0.00;;;20.80;99.90;;;;;;5007571;28;20437;-70
2022/08/17 05:42:35;;;;;;;0.00;0.00;;;20.80;99.90;;;;;;5015968;28;20470;-70
2022/08/17 05:45:03;;;;;;;0.00;0.00;;;20.90;99.90;;;;;;5002490;28;20568;-70
2022/08/17 05:47:31;;;;;;;0.00;0.00;;;20.90;99.90;;;;;;5009385;28;20449;-70
2022/08/17 05:50:00;;;;;;;0.00;0.00;;;20.90;99.90;;;;;;4998820;28;20598;-70
2022/08/17 05:52:38;;;;;;;0.00;0.00;;;21.00;99.90;;;;;;5003559;28;21142;-69
2022/08/17 05:55:18;;;;;;;0.00;0.00;;;21.00;99.90;;;;;;4999351;28;20537;-70
2022/08/17 05:57:59;;;;;;;0.00;0.00;;;21.10;99.90;;;;;;5004515;28;21164;-69
2022/08/17 06:00:35;;;;;;;0.00;0.00;;;21.10;99.90;;;;;;5018564;28;20433;-69
2022/08/17 06:03:24;;;;;;;0.00;0.00;;;21.20;99.90;;;;;;5016793;28;20460;-69
2022/08/17 06:06:01;;;;;;;0.00;0.00;;;21.20;99.90;;;;;;5038165;28;20527;-69
2022/08/17 06:08:38;;;;;;;0.00;0.00;;;21.30;99.90;;;;;;5031613;28;20468;-68
2022/08/17 06:11:15;;;;;;;0.00;0.00;;;21.40;99.90;;;;;;5007546;28;20480;-69
2022/08/17 06:14:17;;;;;;;0.00;0.00;;;21.50;99.90;;;;;;5013648;28;20452;-71
2022/08/17 06:16:49;;;;;;;0.00;0.00;;;21.60;99.90;;;;;;5017869;28;20450;-70
2022/08/17 06:19:22;;;;;;;0.00;0.00;;;21.70;99.90;;;;;;5017661;28;20540;-70
2022/08/17 06:21:54;;;;;;;0.00;0.00;;;21.80;99.90;;;;;;5008987;28;20482;-70
2022/08/17 06:24:27;;;;;;;0.00;0.00;;;21.90;99.90;;;;;;4997928;28;21015;-71
2022/08/17 06:27:03;;;;;;;0.00;0.00;;;22.00;99.90;;;;;;5014508;28;20441;-74
2022/08/17 06:29:38;;;;;;;0.00;0.00;;;22.20;99.90;;;;;;5013042;28;20465;-70
2022/08/17 06:32:11;;;;;;;0.00;0.00;;;22.30;99.90;;;;;;5021547;28;21197;-70
2022/08/17 06:34:41;;;;;;;0.00;0.00;;;22.40;99.90;;;;;;5022052;28;20954;-70
2022/08/17 06:37:21;;;;;;;0.00;0.00;;;22.60;99.90;;;;;;5022744;28;20534;-70
2022/08/17 06:39:59;;;;;;;0.00;0.00;;;22.70;99.90;;;;;;5004623;28;20505;-69
2022/08/17 06:42:39;;;;;;;0.00;0.00;;;22.80;99.90;;;;;;5007121;28;20466;-70
2022/08/17 06:45:30;;;;;;;0.00;0.00;;;22.90;99.90;;;;;;5025691;28;20498;-70
2022/08/17 06:48:07;;;;;;;0.00;0.00;;;23.00;99.90;;;;;;5029888;28;21038;-72
2022/08/17 06:50:37;;;;;;;0.00;0.00;;;23.10;99.90;;;;;;5023281;28;20471;-71
2022/08/17 06:53:13;;;;;;;0.00;0.00;;;23.30;99.90;;;;;;5024261;28;20433;-71
2022/08/17 06:55:46;;;;;;;0.00;0.00;;;23.40;99.90;;;;;;5028090;28;20443;-70
2022/08/17 06:58:23;;;;;;;0.00;0.00;;;23.50;99.90;;;;;;5030171;28;20464;-70
2022/08/17 07:00:59;;;;;;;0.00;0.00;;;23.60;99.90;;;;;;5022417;28;21187;-69
2022/08/17 07:03:36;;;;;;;0.00;0.00;;;23.70;99.90;;;;;;5020530;28;20437;-70
2022/08/17 07:06:08;;;;;;;0.00;0.00;;;23.80;99.90;;;;;;5017301;28;20484;-70
2022/08/17 07:08:47;;;;;;;0.00;0.00;;;23.90;99.90;;;;;;5034790;28;20453;-70
2022/08/17 07:11:19;;;;;;;0.00;0.00;;;24.00;99.90;;;;;;5040688;28;20438;-70
2022/08/17 07:13:55;;;;;;;0.00;0.00;;;24.10;99.90;;;;;;5040633;28;20546;-70
2022/08/17 07:16:31;;;;;;;0.00;0.00;;;24.20;99.90;;;;;;5010818;28;20562;-70
2022/08/17 07:18:59;;;;;;;0.00;0.00;;;24.30;99.90;;;;;;5014775;28;21124;-70
2022/08/17 07:21:40;;;;;;;0.00;0.00;;;24.40;99.90;;;;;;5000596;28;20453;-72
2022/08/17 07:24:19;;;;;;;0.00;0.00;;;24.40;99.90;;;;;;5000708;28;20452;-70
2022/08/17 07:27:05;;;;;;;0.00;0.00;;;24.50;99.90;;;;;;5018569;28;20480;-71
2022/08/17 07:29:39;;;;;;;0.00;0.00;;;24.70;99.90;;;;;;5020836;28;21108;-70
2022/08/17 07:32:09;;;;;;;0.00;0.00;;;24.80;99.90;;;;;;5019729;28;20509;-70
2022/08/17 07:35:06;;;;;;;0.00;0.00;;;24.90;99.90;;;;;;5020797;28;20441;-71
2022/08/17 07:37:39;;;;;;;0.00;0.00;;;25.00;99.90;;;;;;5016015;28;20488;-70
2022/08/17 07:40:19;;;;;;;0.00;0.00;;;25.00;99.90;;;;;;5025876;28;20994;-71
2022/08/17 07:43:17;;;;;;;0.00;0.00;;;25.20;99.90;;;;;;5011544;28;20460;-70
2022/08/17 07:48:48;;;;;;;0.00;0.00;;;25.40;99.90;;;;;;5009743;28;21131;-72
2022/08/17 07:51:19;;;;;;;0.00;0.00;;;25.60;99.90;;;;;;5020394;28;20964;-71
2022/08/17 07:53:48;;;;;;;0.00;0.00;;;25.70;99.90;;;;;;5021282;28;20467;-71
2022/08/17 07:56:33;;;;;;;0.00;0.00;;;25.90;99.90;;;;;;5022637;28;20549;-72
2022/08/17 07:59:14;;;;;;;0.00;0.00;;;26.10;99.90;;;;;;5001921;28;20986;-71
2022/08/17 08:01:48;;;;;;;0.00;0.00;;;26.20;99.90;;;;;;5002656;28;20461;-71
2022/08/17 08:04:30;;;;;;;0.00;0.00;;;26.30;99.90;;;;;;5003423;28;21147;-71
2022/08/17 08:07:26;;;;;;;0.00;0.00;;;26.40;99.90;;;;;;5009426;28;20453;-71
2022/08/17 08:10:07;;;;;;;0.00;0.00;;;26.50;99.90;;;;;;5017811;28;20479;-80
2022/08/17 08:12:37;;;;;;;0.00;0.00;;;26.60;99.90;;;;;;5020551;28;20454;-70
2022/08/17 08:15:16;;;;;;;0.00;0.00;;;26.70;99.90;;;;;;5020381;28;21134;-74
2022/08/17 08:17:52;;;;;;;0.00;0.00;;;26.80;99.90;;;;;;5020172;28;20453;-69
2022/08/17 08:20:27;;;;;;;0.00;0.00;;;26.80;99.90;;;;;;5018495;28;20492;-69
2022/08/17 08:23:31;;;;;;;0.00;0.00;;;26.90;99.90;;;;;;4999733;28;20447;-72
2022/08/17 08:26:12;;;;;;;0.00;0.00;;;27.10;99.90;;;;;;5000110;28;20490;-70
2022/08/17 08:28:51;;;;;;;0.00;0.00;;;27.20;99.90;;;;;;5000946;28;20484;-70
2022/08/17 08:31:26;;;;;;;0.00;0.00;;;27.30;99.90;;;;;;5012737;28;20458;-70
2022/08/17 08:34:08;;;;;;;0.00;0.00;;;27.40;99.90;;;;;;5019777;28;20453;-69
2022/08/17 08:37:03;;;;;;;0.00;0.00;;;27.60;99.90;;;;;;5019725;28;20422;-69
2022/08/17 08:39:58;;;;;;;0.00;0.00;;;27.70;99.90;;;;;;5027276;28;20474;-71
2022/08/17 08:42:37;;;;;;;0.00;0.00;;;27.80;99.90;;;;;;5026807;28;20446;-70
2022/08/17 08:45:11;;;;;;;0.00;0.00;;;27.80;99.90;;;;;;5012124;28;20487;-70
2022/08/17 08:47:59;;;;;;;0.00;0.00;;;27.90;99.90;;;;;;5007870;28;21019;-69
2022/08/17 08:50:46;;;;;;;0.00;0.00;;;27.90;99.90;;;;;;4998475;28;20498;-69
2022/08/17 08:53:26;;;;;;;0.00;0.00;;;28.10;99.90;;;;;;5007693;28;20516;-69
2022/08/17 08:55:59;;;;;;;0.00;0.00;;;28.10;99.90;;;;;;5006924;28;20457;-67
2022/08/17 08:58:36;;;;;;;0.00;0.00;;;28.20;99.90;;;;;;5007437;28;20464;-67
2022/08/17 09:01:15;;;;;;;0.00;0.00;;;28.20;99.90;;;;;;5018156;28;20503;-67
2022/08/17 09:03:58;;;;;;;0.00;0.00;;;28.20;99.90;;;;;;5019308;28;20439;-68
2022/08/17 09:06:57;;;;;;;0.00;0.00;;;28.30;99.90;;;;;;5019223;28;21146;-69
2022/08/17 09:09:34;;;;;;;0.00;0.00;;;28.30;99.90;;;;;;5018942;28;20476;-67
2022/08/17 09:12:08;;;;;;;0.00;0.00;;;28.30;99.90;;;;;;5019115;28;20439;-67
2022/08/17 09:14:40;;;;;;;0.00;0.00;;;28.30;99.90;;;;;;5019257;28;20446;-67
2022/08/17 09:17:18;;;;;;;0.00;0.00;;;28.30;99.90;;;;;;5018635;28;20498;-67
2022/08/17 09:19:51;;;;;;;0.00;0.00;;;28.30;99.90;;;;;;5018554;28;21007;-67
2022/08/17 09:22:30;;;;;;;0.00;0.00;;;28.30;99.90;;;;;;5018761;28;20471;-67
2022/08/17 09:25:06;;;;;;;0.00;0.00;;;28.40;99.90;;;;;;5019193;28;20991;-67
2022/08/17 09:27:46;;;;;;;0.00;0.00;;;28.40;99.90;;;;;;5018567;28;20534;-67
2022/08/17 09:30:15;;;;;;;0.00;0.00;;;28.40;99.90;;;;;;5018934;28;20546;-67
2022/08/17 09:32:45;;;;;;;0.00;0.00;;;28.40;99.90;;;;;;5018917;28;20440;-67
2022/08/17 09:35:18;;;;;;;0.00;0.00;;;28.50;99.90;;;;;;5018456;28;20440;-67
2022/08/17 09:38:08;;;;;;;0.00;0.00;;;28.50;99.90;;;;;;5018490;28;20443;-67
2022/08/17 09:40:43;;;;;;;0.00;0.00;;;28.50;99.90;;;;;;5018207;28;21115;-68
2022/08/17 09:43:20;;;;;;;0.00;0.00;;;28.60;99.90;;;;;;5018450;28;20438;-68
2022/08/17 09:45:53;;;;;;;0.00;0.00;;;28.50;99.90;;;;;;5018195;28;21152;-66
2022/08/17 09:48:26;;;;;;;0.00;0.00;;;28.50;99.90;;;;;;5018207;28;20563;-67
2022/08/17 09:51:01;;;;;;;0.00;0.00;;;28.50;99.90;;;;;;5018584;28;20443;-66
2022/08/17 09:53:36;;;;;;;0.00;0.00;;;28.60;99.90;;;;;;5018273;28;20526;-66
2022/08/17 09:56:17;;;;;;;0.00;0.00;;;28.70;99.90;;;;;;5018248;28;20448;-67
2022/08/17 09:58:58;;;;;;;0.00;0.00;;;28.90;99.90;;;;;;5018846;28;20452;-69
2022/08/17 10:01:34;;;;;;;0.00;0.00;;;29.00;99.90;;;;;;5021291;28;20454;-69
2022/08/17 10:04:25;;;;;;;0.00;0.00;;;29.10;99.90;;;;;;5020312;28;20440;-67
2022/08/17 10:07:03;;;;;;;0.00;0.00;;;29.20;99.90;;;;;;5019359;28;20475;-67
2022/08/17 10:09:44;;;;;;;0.00;0.00;;;29.20;99.90;;;;;;5018526;28;20460;-67
2022/08/17 10:12:23;;;;;;;0.00;0.00;;;29.30;99.90;;;;;;5018159;28;20448;-67
2022/08/17 10:15:14;;;;;;;0.00;0.00;;;29.40;99.90;;;;;;5018232;28;20437;-67
2022/08/17 10:18:06;;;;;;;0.00;0.00;;;29.50;99.90;;;;;;5017945;28;20970;-67
2022/08/17 10:20:44;;;;;;;0.00;0.00;;;29.70;99.90;;;;;;5017923;28;20472;-66
2022/08/17 10:26:13;;;;;;;0.00;0.00;;;29.90;99.90;;;;;;5017770;28;20592;-66
2022/08/17 10:28:46;;;;;;;0.00;0.00;;;29.90;99.90;;;;;;5017749;28;20551;-67
2022/08/17 10:31:23;;;;;;;0.00;0.00;;;29.90;99.90;;;;;;5019289;28;20456;-67
2022/08/17 10:34:32;;;;;;;0.00;0.00;;;30.00;99.90;;;;;;5018174;28;20448;-67
2022/08/17 10:37:22;;;;;;;0.00;0.00;;;30.20;99.90;;;;;;5018029;28;21102;-69
2022/08/17 10:40:01;;;;;;;0.00;0.00;;;30.30;99.90;;;;;;5017804;28;20547;-69
2022/08/17 10:42:36;;;;;;;0.00;0.00;;;30.30;99.90;;;;;;5018311;28;20440;-68
2022/08/17 10:45:15;;;;;;;0.00;0.00;;;30.30;99.90;;;;;;5018512;28;20528;-68
2022/08/17 10:47:58;;;;;;;0.00;0.00;;;30.30;99.90;;;;;;5017736;28;20489;-67
2022/08/17 10:51:07;;;;;;;0.00;0.00;;;30.40;99.90;;;;;;5018033;28;20449;-68
2022/08/17 10:53:53;;;;;;;0.00;0.00;;;30.40;99.90;;;;;;4956414;28;20431;-68
2022/08/17 10:56:40;;;;;;;0.00;0.00;;;30.40;99.90;;;;;;5013793;28;21031;-67
2022/08/17 10:59:09;;;;;;;0.00;0.00;;;30.50;99.90;;;;;;5018829;28;20457;-68
2022/08/17 11:02:04;;;;;;;0.00;0.00;;;30.50;99.90;;;;;;5018765;28;20428;-68
2022/08/17 11:04:48;;;;;;;0.00;0.00;;;30.50;99.90;;;;;;5018833;28;20463;-68
2022/08/17 11:07:31;;;;;;;0.00;0.00;;;30.60;99.90;;;;;;5017930;28;20484;-67
2022/08/17 11:10:18;;;;;;;0.00;0.00;;;30.60;99.90;;;;;;5017548;28;21018;-67
2022/08/17 11:12:54;;;;;;;0.00;0.00;;;30.70;99.90;;;;;;5019583;28;20664;-67
2022/08/17 11:15:37;;;;;;;0.00;0.00;;;30.70;99.90;;;;;;5021792;28;20454;-67
2022/08/17 11:18:20;;;;;;;0.00;0.00;;;30.70;99.90;;;;;;5021368;28;21013;-67
2022/08/17 11:21:12;;;;;;;0.00;0.00;;;30.80;99.90;;;;;;5020911;28;21110;-67
2022/08/17 11:23:57;;;;;;;0.00;0.00;;;30.90;99.90;;;;;;5018548;28;20468;-66
2022/08/17 11:26:28;;;;;;;0.00;0.00;;;30.90;99.90;;;;;;5020531;28;20479;-67
2022/08/17 11:29:02;;;;;;;0.00;0.00;;;31.00;99.90;;;;;;5020626;28;20464;-67
2022/08/17 11:31:36;;;;;;;0.00;0.00;;;31.10;99.90;;;;;;5021287;28;20428;-67
2022/08/17 11:34:13;;;;;;;0.00;0.00;;;31.10;99.90;;;;;;5021339;28;20441;-67
2022/08/17 11:37:17;;;;;;;0.00;0.00;;;31.00;99.90;;;;;;5020736;28;20452;-67
2022/08/17 11:40:21;;;;;;;0.00;0.00;;;31.00;99.90;;;;;;5020432;28;20449;-67
2022/08/17 11:43:03;;;;;;;0.00;0.00;;;31.00;99.90;;;;;;5007749;28;20451;-67
2022/08/17 11:45:45;;;;;;;0.00;0.00;;;31.10;99.90;;;;;;5020710;28;20437;-67
2022/08/17 11:54:36;;;;;;;0.00;0.00;;;31.20;99.90;;;;;;4959029;28;20526;-67
2022/08/17 11:58:00;;;;;;;0.00;0.00;;;31.30;99.90;;;;;;5016584;28;20472;-67
2022/08/17 12:00:51;;;;;;;0.00;0.00;;;31.30;99.90;;;;;;5020259;28;20463;-67
2022/08/17 12:03:25;;;;;;;0.00;0.00;;;31.40;99.90;;;;;;5020232;28;20948;-66
2022/08/17 12:06:03;;;;;;;0.00;0.00;;;31.40;99.90;;;;;;5019907;28;20445;-67
2022/08/17 12:08:32;;;;;;;0.00;0.00;;;31.40;99.90;;;;;;5020242;28;20479;-67
2022/08/17 12:11:06;;;;;;;0.00;0.00;;;31.40;99.90;;;;;;5019473;28;21035;-67
2022/08/17 12:13:42;;;;;;;0.00;0.00;;;31.40;99.90;;;;;;5019835;28;20453;-67
2022/08/17 12:16:16;;;;;;;0.00;0.00;;;31.50;99.90;;;;;;5019810;28;20991;-67
2022/08/17 12:18:52;;;;;;;0.00;0.00;;;31.50;99.90;;;;;;5020305;28;20547;-67
2022/08/17 12:21:39;;;;;;;0.00;0.00;;;31.60;99.90;;;;;;5020195;28;20448;-68
2022/08/17 12:24:18;;;;;;;0.00;0.00;;;31.70;99.90;;;;;;5020097;28;20492;-67
2022/08/17 12:26:52;;;;;;;0.00;0.00;;;31.70;99.90;;;;;;5019623;28;20437;-68
2022/08/17 12:29:20;;;;;;;0.00;0.00;;;31.70;99.90;;;;;;5019820;28;20539;-68
2022/08/17 12:32:12;;;;;;;0.00;0.00;;;31.70;99.80;;;;;;5020175;28;20444;-68
2022/08/17 12:34:43;;;;;;;0.00;0.00;;;31.70;99.90;;;;;;5019761;28;20519;-68
2022/08/17 12:37:15;;;;;;;0.00;0.00;;;31.80;99.90;;;;;;5019427;28;20527;-68
2022/08/17 12:39:51;;;;;;;0.00;0.00;;;31.80;99.80;;;;;;5019527;28;20475;-67
2022/08/17 12:42:24;;;;;;;0.00;0.00;;;31.80;99.90;;;;;;5019846;28;20433;-68
2022/08/17 12:44:52;;;;;;;0.00;0.00;;;31.70;99.30;;;;;;5019591;28;20437;-68
2022/08/17 12:47:20;;;;;;;0.00;0.00;;;31.70;98.60;;;;;;5019162;28;20504;-68
2022/08/17 12:49:52;;;;;;;0.00;0.00;;;31.70;98.80;;;;;;5018307;28;20982;-68
2022/08/17 12:52:23;;;;;;;0.00;0.00;;;31.50;99.10;;;;;;5019168;28;20649;-68
2022/08/17 12:54:55;;;;;;;0.00;0.00;;;31.40;99.10;;;;;;5019065;28;20530;-68
2022/08/17 12:57:27;;;;;;;0.00;0.00;;;31.30;99.30;;;;;;5019226;28;20486;-67
2022/08/17 13:00:01;;;;;;;0.00;0.00;;;31.20;99.00;;;;;;5018695;28;20461;-68
2022/08/17 13:02:41;;;;;;;0.00;0.00;;;31.10;99.10;;;;;;5019167;28;20528;-68
2022/08/17 13:05:20;;;;;;;0.00;0.00;;;31.10;99.30;;;;;;5019225;28;20437;-68
2022/08/17 13:07:48;;;;;;;0.00;0.00;;;31.00;99.40;;;;;;5019046;28;20472;-69
2022/08/17 13:10:24;;;;;;;0.00;0.00;;;31.00;99.40;;;;;;5018803;28;20445;-68
2022/08/17 13:13:03;;;;;;;0.00;0.00;;;30.90;99.50;;;;;;5019579;28;20448;-67
2022/08/17 13:15:36;;;;;;;0.00;0.00;;;30.80;99.70;;;;;;5019200;28;20506;-68
2022/08/17 13:18:35;;;;;;;0.00;0.00;;;30.80;99.90;;;;;;5019090;28;21173;-68
2022/08/17 13:21:06;;;;;;;0.00;0.00;;;30.70;99.80;;;;;;5018408;28;20436;-68
2022/08/17 13:23:34;;;;;;;0.00;0.00;;;30.70;99.90;;;;;;5018108;28;20514;-68
2022/08/17 13:26:06;;;;;;;0.00;0.00;;;30.60;99.90;;;;;;5018684;28;20532;-68
2022/08/17 13:28:36;;;;;;;0.00;0.00;;;30.60;99.90;;;;;;5018492;28;20718;-68
2022/08/17 13:31:33;;;;;;;0.00;0.00;;;30.60;99.90;;;;;;5018234;28;20621;-68
2022/08/17 13:34:34;;;;;;;0.00;0.00;;;30.60;99.90;;;;;;5018792;28;20445;-68
2022/08/17 13:37:31;;;;;;;0.00;0.00;;;30.60;99.90;;;;;;5018582;28;20453;-68
2022/08/17 13:40:04;;;;;;;0.00;0.00;;;30.60;99.90;;;;;;5018165;28;21099;-67
2022/08/17 13:42:38;;;;;;;0.00;0.00;;;30.70;99.90;;;;;;5018374;28;20441;-68
2022/08/17 13:45:42;;;;;;;0.00;0.00;;;30.70;99.90;;;;;;5018973;28;20445;-68
2022/08/17 13:48:19;;;;;;;0.00;0.00;;;30.70;99.90;;;;;;5018498;28;20477;-68
2022/08/17 13:51:02;;;;;;;0.00;0.00;;;30.60;99.80;;;;;;5018365;28;21066;-67
2022/08/17 13:53:33;;;;;;;0.00;0.00;;;30.50;99.60;;;;;;5018285;28;20936;-68
2022/08/17 13:56:06;;;;;;;0.00;0.00;;;30.40;99.90;;;;;;5018671;28;20544;-68
2022/08/17 13:58:58;;;;;;;0.00;0.00;;;30.30;99.90;;;;;;5018430;28;20454;-68
2022/08/17 14:01:31;;;;;;;0.00;0.00;;;30.30;99.90;;;;;;5017830;28;20599;-68
2022/08/17 14:04:01;;;;;;;0.00;0.00;;;30.30;99.90;;;;;;5017897;28;20674;-68